createdAt,value
2019-05-13T06:25:33.662Z,8060.00
2019-05-13T06:26:31.408Z,8104.00
2019-05-13T06:27:31.770Z,8176.00
2019-05-13T06:28:32.272Z,7932.00
2019-05-13T06:29:31.910Z,8012.00
2019-05-13T06:30:32.545Z,8064.00
2019-05-13T06:31:32.249Z,8404.00
2019-05-13T06:32:31.527Z,8220.00
2019-05-13T06:33:31.707Z,8076.00
2019-05-13T06:34:32.790Z,8368.00
2019-05-13T06:35:32.343Z,8544.00
2019-05-13T06:36:31.803Z,8768.00
2019-05-13T06:37:32.167Z,9068.00
2019-05-13T06:38:31.739Z,8408.00
2019-05-13T06:39:31.812Z,8260.00
2019-05-13T06:40:31.840Z,7112.00
2019-05-13T06:41:32.335Z,8612.00
2019-05-13T06:42:32.451Z,9260.00
2019-05-13T06:43:31.585Z,9404.00
2019-05-13T06:44:31.748Z,8288.00
2019-05-13T06:45:31.689Z,8564.00
2019-05-13T06:46:32.329Z,8260.00
2019-05-13T06:47:32.200Z,8676.00
2019-05-13T06:48:32.326Z,8688.00
2019-05-13T06:49:32.383Z,8620.00
2019-05-13T06:50:32.339Z,8852.00
2019-05-13T06:51:31.511Z,9756.00
2019-05-13T06:52:32.022Z,9700.00
2019-05-13T06:53:32.206Z,9776.00
2019-05-13T06:54:32.906Z,9540.00
2019-05-13T06:55:31.627Z,9072.00
2019-05-13T06:56:32.250Z,9168.00
2019-05-13T06:57:32.246Z,8712.00
2019-05-13T06:58:32.560Z,9304.00
2019-05-13T06:59:31.733Z,8732.00
2019-05-13T07:00:34.681Z,9280.00
2019-05-13T07:01:32.315Z,9464.00
2019-05-13T07:02:32.071Z,10512.00
2019-05-13T07:03:32.256Z,9160.00
2019-05-13T07:04:32.636Z,9256.00
2019-05-13T07:05:31.887Z,10400.00
2019-05-13T07:06:32.301Z,10536.00
2019-05-13T07:07:31.916Z,10812.00
2019-05-13T07:08:31.629Z,10496.00
2019-05-13T07:09:32.545Z,10744.00
2019-05-13T07:10:32.156Z,9828.00
2019-05-13T07:11:31.692Z,9968.00
2019-05-13T07:12:31.643Z,10440.00
2019-05-13T07:13:32.368Z,9288.00
2019-05-13T07:14:32.529Z,9448.00
2019-05-13T07:15:31.678Z,11104.00
2019-05-13T07:16:31.828Z,12136.00
2019-05-13T07:17:32.321Z,11712.00
2019-05-13T07:18:32.332Z,9868.00
2019-05-13T07:19:32.448Z,10120.00
2019-05-13T07:20:32.343Z,9884.00
2019-05-13T07:21:32.395Z,9040.00
2019-05-13T07:22:32.297Z,8740.00
2019-05-13T07:23:32.025Z,9092.00
2019-05-13T07:24:32.470Z,9004.00
2019-05-13T07:25:32.625Z,9224.00
2019-05-13T07:26:31.816Z,9732.00
2019-05-13T07:27:31.997Z,10100.00
2019-05-13T07:28:32.395Z,9848.00
2019-05-13T07:29:32.723Z,10468.00
2019-05-13T07:30:31.876Z,10660.00
2019-05-13T07:31:32.467Z,10504.00
2019-05-13T07:32:31.896Z,9960.00
2019-05-13T07:33:32.204Z,9828.00
2019-05-13T07:34:33.623Z,10388.00
2019-05-13T07:35:37.591Z,9828.00
2019-05-13T07:36:31.948Z,10588.00
2019-05-13T07:37:31.988Z,11008.00
2019-05-13T07:38:32.446Z,10812.00
2019-05-13T07:39:32.887Z,11960.00
2019-05-13T07:40:32.235Z,11440.00
2019-05-13T07:41:39.034Z,11100.00
2019-05-13T07:42:32.076Z,10720.00
2019-05-13T07:43:32.282Z,10908.00
2019-05-13T07:44:32.586Z,10892.00
2019-05-13T07:45:32.077Z,11160.00
2019-05-13T07:46:32.380Z,11436.00
2019-05-13T07:47:32.103Z,11452.00
2019-05-13T07:48:32.212Z,8880.00
2019-05-13T07:49:32.191Z,9496.00
2019-05-13T07:50:32.261Z,10180.00
2019-05-13T07:51:32.291Z,8212.00
2019-05-13T07:52:32.186Z,10972.00
2019-05-13T07:53:32.394Z,10312.00
2019-05-13T07:54:33.144Z,10872.00
2019-05-13T07:55:32.221Z,10228.00
2019-05-13T07:56:32.561Z,11276.00
2019-05-13T07:57:32.253Z,10044.00
2019-05-13T07:58:37.186Z,11836.00
2019-05-13T07:59:32.276Z,11568.00
2019-05-13T08:00:32.721Z,10080.00
2019-05-13T08:01:32.889Z,11344.00
2019-05-13T08:02:32.369Z,11836.00
2019-05-13T08:03:32.339Z,12008.00
2019-05-13T08:04:33.619Z,11936.00
2019-05-13T08:05:32.370Z,11992.00
2019-05-13T08:06:32.579Z,12008.00
2019-05-13T08:07:32.398Z,12152.00
2019-05-13T08:08:32.558Z,12656.00
2019-05-13T08:09:32.430Z,12252.00
2019-05-13T08:10:32.448Z,12500.00
2019-05-13T08:11:35.357Z,12808.00
2019-05-13T08:12:32.480Z,12756.00
2019-05-13T08:13:32.499Z,13048.00
2019-05-13T08:14:32.555Z,11952.00
2019-05-13T08:15:32.540Z,13204.00
2019-05-13T08:16:32.559Z,13732.00
2019-05-13T08:17:32.868Z,12964.00
2019-05-13T08:18:32.577Z,13076.00
2019-05-13T08:19:32.921Z,14108.00
2019-05-13T08:21:32.620Z,14264.00
2019-05-13T08:22:32.635Z,13352.00
2019-05-13T08:23:32.656Z,14436.00
2019-05-13T08:24:32.755Z,14452.00
2019-05-13T08:25:32.686Z,14896.00
2019-05-13T08:26:32.701Z,14724.00
2019-05-13T08:27:35.069Z,14716.00
2019-05-13T08:28:32.748Z,14956.00
2019-05-13T08:29:33.122Z,14896.00
2019-05-13T08:30:32.769Z,14432.00
2019-05-13T08:31:32.781Z,15312.00
2019-05-13T08:32:32.798Z,14488.00
2019-05-13T08:33:32.813Z,14756.00
2019-05-13T08:34:33.261Z,15244.00
2019-05-13T08:35:32.866Z,14920.00
2019-05-13T08:36:32.874Z,14864.00
2019-05-13T08:37:32.886Z,14948.00
2019-05-13T08:38:32.892Z,14984.00
2019-05-13T08:39:37.942Z,15172.00
2019-05-13T08:40:32.965Z,15120.00
2019-05-13T08:41:32.941Z,15064.00
2019-05-13T08:42:32.951Z,15576.00
2019-05-13T08:43:32.966Z,15904.00
2019-05-13T08:44:32.994Z,16448.00
2019-05-13T08:45:33.007Z,16256.00
2019-05-13T08:46:33.032Z,16544.00
2019-05-13T08:47:33.063Z,17024.00
2019-05-13T08:48:33.092Z,17024.00
2019-05-13T08:49:33.075Z,17056.00
2019-05-13T08:50:33.088Z,17664.00
2019-05-13T08:51:34.796Z,17664.00
2019-05-13T08:52:33.126Z,17824.00
2019-05-13T08:53:33.149Z,17728.00
2019-05-13T08:54:33.262Z,17728.00
2019-05-13T08:55:33.184Z,18208.00
2019-05-13T08:56:33.197Z,18208.00
2019-05-13T08:57:33.209Z,18336.00
2019-05-13T08:58:33.239Z,18080.00
2019-05-13T08:59:33.241Z,18272.00
2019-05-13T09:00:33.256Z,18528.00
2019-05-13T09:01:33.283Z,18304.00
2019-05-13T09:02:33.287Z,18432.00
2019-05-13T09:03:33.309Z,18720.00
2019-05-13T09:04:33.318Z,18944.00
2019-05-13T09:05:33.345Z,18624.00
2019-05-13T09:06:33.354Z,18208.00
2019-05-13T09:07:33.380Z,19488.00
2019-05-13T09:08:33.397Z,19776.00
2019-05-13T09:09:33.418Z,19520.00
2019-05-13T09:10:33.427Z,19616.00
2019-05-13T09:11:33.439Z,20512.00
2019-05-13T09:12:37.051Z,20704.00
2019-05-13T09:13:33.483Z,20608.00
2019-05-13T09:14:33.501Z,19872.00
2019-05-13T09:15:33.506Z,19648.00
2019-05-13T09:16:33.523Z,20320.00
2019-05-13T09:17:33.546Z,19840.00
2019-05-13T09:18:33.572Z,20000.00
2019-05-13T09:19:33.646Z,20672.00
2019-05-13T09:20:33.598Z,20640.00
2019-05-13T09:21:33.615Z,19904.00
2019-05-13T09:22:33.637Z,19072.00
2019-05-13T09:23:33.658Z,20704.00
2019-05-13T09:24:37.564Z,21760.00
2019-05-13T09:25:33.678Z,20544.00
2019-05-13T09:26:33.697Z,21664.00
2019-05-13T09:27:33.717Z,21888.00
2019-05-13T09:28:33.737Z,22720.00
2019-05-13T09:29:33.752Z,21824.00
2019-05-13T09:30:33.767Z,21792.00
2019-05-13T09:31:33.789Z,23168.00
2019-05-13T09:32:33.798Z,20544.00
2019-05-13T09:33:33.818Z,20608.00
2019-05-13T09:34:33.844Z,21440.00
2019-05-13T09:35:33.850Z,21408.00
2019-05-13T09:36:33.872Z,21760.00
2019-05-13T09:37:33.890Z,21152.00
2019-05-13T09:38:33.909Z,21440.00
2019-05-13T09:39:33.914Z,22560.00
2019-05-13T09:40:33.953Z,23808.00
2019-05-13T09:41:40.588Z,22592.00
2019-05-13T09:42:48.151Z,21696.00
2019-05-13T09:43:33.994Z,21856.00
2019-05-13T09:44:34.007Z,22528.00
2019-05-13T09:45:34.035Z,23520.00
2019-05-13T09:46:34.043Z,23616.00
2019-05-13T09:47:34.058Z,23168.00
2019-05-13T09:48:34.083Z,23360.00
2019-05-13T09:49:34.098Z,23424.00
2019-05-13T09:50:36.178Z,23200.00
2019-05-13T09:51:34.124Z,22976.00
2019-05-13T09:52:34.148Z,22688.00
2019-05-13T09:53:34.164Z,23040.00
2019-05-13T09:54:34.203Z,23456.00
2019-05-13T09:55:34.201Z,23968.00
2019-05-13T09:56:34.225Z,23488.00
2019-05-13T09:57:34.235Z,23360.00
2019-05-13T09:58:34.246Z,23488.00
2019-05-13T09:59:34.261Z,23648.00
2019-05-13T10:00:34.295Z,23520.00
2019-05-13T10:01:34.411Z,23424.00
2019-05-13T10:02:34.322Z,23456.00
2019-05-13T10:03:34.332Z,23584.00
2019-05-13T10:04:34.350Z,23872.00
2019-05-13T10:05:34.369Z,23008.00
2019-05-13T10:06:34.389Z,23808.00
2019-05-13T10:07:34.408Z,24704.00
2019-05-13T10:08:34.436Z,24000.00
2019-05-13T10:09:34.448Z,23904.00
2019-05-13T10:10:34.469Z,24736.00
2019-05-13T10:11:34.476Z,24800.00
2019-05-13T10:12:34.498Z,23808.00
2019-05-13T10:13:34.502Z,24480.00
2019-05-13T10:14:34.573Z,24864.00
2019-05-13T10:15:34.555Z,24832.00
2019-05-13T10:16:34.562Z,24480.00
2019-05-13T10:17:34.584Z,24800.00
2019-05-13T10:18:34.600Z,24064.00
2019-05-13T10:19:34.625Z,23424.00
2019-05-13T10:20:34.644Z,24704.00
2019-05-13T10:21:34.657Z,25376.00
2019-05-13T10:22:34.664Z,23872.00
2019-05-13T10:23:34.685Z,24512.00
2019-05-13T10:24:34.711Z,24672.00
2019-05-13T10:25:34.733Z,25216.00
2019-05-13T10:26:34.744Z,25056.00
2019-05-13T10:27:34.766Z,24768.00
2019-05-13T10:28:34.910Z,25216.00
2019-05-13T10:29:34.792Z,24928.00
2019-05-13T10:30:34.824Z,24768.00
2019-05-13T10:31:34.827Z,24960.00
2019-05-13T10:32:34.840Z,25120.00
2019-05-13T10:33:34.853Z,24640.00
2019-05-13T10:34:34.885Z,24608.00
2019-05-13T10:35:34.904Z,24896.00
2019-05-13T10:36:35.025Z,25184.00
2019-05-13T10:37:34.926Z,25024.00
2019-05-13T10:38:34.959Z,24416.00
2019-05-13T10:39:34.966Z,25408.00
2019-05-13T10:40:34.987Z,26528.00
2019-05-13T10:41:35.035Z,26368.00
2019-05-13T10:42:35.027Z,24576.00
2019-05-13T10:44:35.068Z,25728.00
2019-05-13T10:45:35.084Z,24448.00
2019-05-13T10:46:35.169Z,24192.00
2019-05-13T10:47:35.108Z,24576.00
2019-05-13T10:48:35.136Z,24768.00
2019-05-13T10:49:35.167Z,25536.00
2019-05-13T10:50:35.166Z,24992.00
2019-05-13T10:51:35.191Z,25408.00
2019-05-13T10:52:35.209Z,25056.00
2019-05-13T10:53:35.228Z,26176.00
2019-05-13T10:54:35.240Z,24352.00
2019-05-13T10:55:35.253Z,24224.00
2019-05-13T10:56:35.275Z,24640.00
2019-05-13T10:57:35.287Z,24832.00
2019-05-13T10:58:35.309Z,24672.00
2019-05-13T10:59:35.319Z,26112.00
2019-05-13T11:00:35.337Z,23520.00
2019-05-13T11:01:35.357Z,23296.00
2019-05-13T11:02:35.389Z,23840.00
2019-05-13T11:03:35.417Z,23744.00
2019-05-13T11:04:35.415Z,24384.00
2019-05-13T11:05:40.527Z,24736.00
2019-05-13T11:06:35.453Z,24480.00
2019-05-13T11:07:35.472Z,24288.00
2019-05-13T11:08:35.485Z,24384.00
2019-05-13T11:09:35.509Z,24384.00
2019-05-13T11:10:35.525Z,24192.00
2019-05-13T11:11:35.541Z,23488.00
2019-05-13T11:12:35.561Z,23808.00
2019-05-13T11:13:52.329Z,25440.00
2019-05-13T11:14:35.601Z,23456.00
2019-05-13T11:15:41.153Z,23648.00
2019-05-13T11:16:35.629Z,24256.00
2019-05-13T11:17:35.649Z,24544.00
2019-05-13T11:18:35.677Z,24064.00
2019-05-13T11:19:37.087Z,24224.00
2019-05-13T11:20:35.712Z,24128.00
2019-05-13T11:21:35.721Z,23648.00
2019-05-13T11:22:35.739Z,24416.00
2019-05-13T11:23:35.762Z,23904.00
2019-05-13T11:24:35.771Z,23424.00
2019-05-13T11:25:35.788Z,22912.00
2019-05-13T11:26:36.463Z,23328.00
2019-05-13T11:27:35.834Z,22976.00
2019-05-13T11:28:35.849Z,22144.00
2019-05-13T11:29:35.869Z,22848.00
2019-05-13T11:30:35.889Z,23008.00
2019-05-13T11:31:35.967Z,22912.00
2019-05-13T11:32:35.910Z,22720.00
2019-05-13T11:33:35.940Z,22432.00
2019-05-13T11:34:35.956Z,21600.00
2019-05-13T11:35:35.965Z,21376.00
2019-05-13T11:36:35.984Z,21120.00
2019-05-13T11:37:35.998Z,21120.00
2019-05-13T11:38:36.023Z,22272.00
2019-05-13T11:39:36.061Z,21824.00
2019-05-13T11:40:36.076Z,21664.00
2019-05-13T11:41:36.093Z,21440.00
2019-05-13T11:42:36.210Z,21792.00
2019-05-13T11:43:36.108Z,21728.00
2019-05-13T11:44:36.132Z,20864.00
2019-05-13T11:45:36.146Z,20032.00
2019-05-13T11:46:36.171Z,20960.00
2019-05-13T11:47:36.190Z,20864.00
2019-05-13T11:48:36.214Z,20576.00
2019-05-13T11:49:36.221Z,20416.00
2019-05-13T11:50:36.244Z,20128.00
2019-05-13T11:51:36.252Z,19520.00
2019-05-13T11:52:36.273Z,19488.00
2019-05-13T11:53:37.662Z,19712.00
2019-05-13T11:54:36.308Z,19680.00
2019-05-13T11:55:36.324Z,19872.00
2019-05-13T11:56:36.345Z,19936.00
2019-05-13T11:57:36.371Z,19648.00
2019-05-13T11:58:36.377Z,19296.00
2019-05-13T11:59:36.400Z,19584.00
2019-05-13T12:00:36.412Z,19360.00
2019-05-13T12:01:36.430Z,19264.00
2019-05-13T12:02:36.449Z,19296.00
2019-05-13T12:03:36.465Z,18944.00
2019-05-13T12:04:36.481Z,19808.00
2019-05-13T12:05:36.497Z,19936.00
2019-05-13T12:06:43.789Z,19808.00
2019-05-13T12:07:36.571Z,19968.00
2019-05-13T12:08:36.566Z,19584.00
2019-05-13T12:09:36.583Z,19424.00
2019-05-13T12:10:36.613Z,19968.00
2019-05-13T12:11:36.610Z,19328.00
2019-05-13T12:12:36.628Z,19392.00
2019-05-13T12:13:36.644Z,18752.00
2019-05-13T12:14:56.529Z,19200.00
2019-05-13T12:15:45.958Z,19136.00
2019-05-13T12:16:36.696Z,18976.00
2019-05-13T12:17:36.719Z,18976.00
2019-05-13T12:18:43.248Z,19680.00
2019-05-13T12:19:36.751Z,20416.00
2019-05-13T12:20:36.796Z,20288.00
2019-05-13T12:21:41.917Z,19872.00
2019-05-13T12:22:36.805Z,19872.00
2019-05-13T12:23:36.827Z,19744.00
2019-05-13T12:24:36.856Z,18976.00
2019-05-13T12:25:36.875Z,19552.00
2019-05-13T12:26:36.882Z,19872.00
2019-05-13T12:27:36.901Z,19840.00
2019-05-13T12:28:36.908Z,19680.00
2019-05-13T12:29:36.946Z,19840.00
2019-05-13T12:30:36.957Z,19872.00
2019-05-13T12:31:36.972Z,19872.00
2019-05-13T12:32:37.005Z,19808.00
2019-05-13T12:33:37.014Z,20128.00
2019-05-13T12:34:40.991Z,20064.00
2019-05-13T12:35:37.057Z,19456.00
2019-05-13T12:36:37.067Z,19744.00
2019-05-13T12:37:37.088Z,20448.00
2019-05-13T12:38:37.105Z,19584.00
2019-05-13T12:39:37.116Z,19424.00
2019-05-13T12:40:37.132Z,19200.00
2019-05-13T12:41:37.153Z,19136.00
2019-05-13T12:42:43.263Z,19168.00
2019-05-13T12:43:37.189Z,19104.00
2019-05-13T12:44:59.745Z,19424.00
2019-05-13T12:45:37.239Z,19392.00
2019-05-13T12:46:37.261Z,18976.00
2019-05-13T12:47:37.255Z,18720.00
2019-05-13T12:48:37.276Z,18368.00
2019-05-13T12:49:37.303Z,17856.00
2019-05-13T12:50:37.336Z,17952.00
2019-05-13T12:51:37.337Z,18144.00
2019-05-13T12:52:37.350Z,18656.00
2019-05-13T12:53:37.374Z,18176.00
2019-05-13T12:54:37.395Z,18240.00
2019-05-13T12:55:37.427Z,18272.00
2019-05-13T12:56:37.428Z,17664.00
2019-05-13T12:57:37.465Z,17760.00
2019-05-13T12:58:37.466Z,18048.00
2019-05-13T12:59:37.487Z,18048.00
2019-05-13T13:00:37.507Z,17920.00
2019-05-13T13:01:37.529Z,17856.00
2019-05-13T13:02:37.550Z,17216.00
2019-05-13T13:03:37.559Z,17120.00
2019-05-13T13:04:37.593Z,16512.00
2019-05-13T13:05:37.606Z,16928.00
2019-05-13T13:06:41.597Z,16992.00
2019-05-13T13:07:41.221Z,17088.00
2019-05-13T13:08:43.358Z,16768.00
2019-05-13T13:09:37.664Z,16640.00
2019-05-13T13:10:37.689Z,16448.00
2019-05-13T13:11:37.709Z,16544.00
2019-05-13T13:12:37.773Z,16576.00
2019-05-13T13:13:58.974Z,16160.00
2019-05-13T13:14:39.630Z,15872.00
2019-05-13T13:15:42.382Z,15348.00
2019-05-13T13:16:37.828Z,15584.00
2019-05-13T13:17:37.827Z,15712.00
2019-05-13T13:18:37.838Z,15872.00
2019-05-13T13:19:37.854Z,15496.00
2019-05-13T13:20:42.111Z,16032.00
2019-05-13T13:21:37.990Z,15872.00
2019-05-13T13:22:37.913Z,15616.00
2019-05-13T13:23:37.932Z,15440.00
2019-05-13T13:24:37.954Z,15196.00
2019-05-13T13:25:38.044Z,15296.00
2019-05-13T13:26:37.986Z,15360.00
2019-05-13T13:28:03.146Z,15192.00
2019-05-13T13:28:38.061Z,15180.00
2019-05-13T13:29:38.045Z,14912.00
2019-05-13T13:30:38.059Z,14824.00
2019-05-13T13:31:38.082Z,14720.00
2019-05-13T13:32:38.126Z,14512.00
2019-05-13T13:33:38.109Z,14604.00
2019-05-13T13:34:38.135Z,14556.00
2019-05-13T13:35:38.162Z,14584.00
2019-05-13T13:36:38.168Z,14312.00
2019-05-13T13:37:38.257Z,14552.00
2019-05-13T13:38:38.208Z,14424.00
2019-05-13T13:39:38.224Z,14204.00
2019-05-13T13:40:38.246Z,14248.00
2019-05-13T13:41:38.263Z,13924.00
2019-05-13T13:42:38.270Z,13776.00
2019-05-13T13:43:38.333Z,13612.00
2019-05-13T13:44:38.319Z,13860.00
2019-05-13T13:46:06.098Z,13736.00
2019-05-13T13:46:44.649Z,13656.00
2019-05-13T13:47:38.390Z,13352.00
2019-05-13T13:48:38.390Z,13148.00
2019-05-13T13:49:38.411Z,13220.00
2019-05-13T13:50:38.440Z,12976.00
2019-05-13T13:51:38.458Z,13336.00
2019-05-13T13:52:38.464Z,12968.00
2019-05-13T13:53:38.599Z,12852.00
2019-05-13T13:54:38.505Z,12828.00
2019-05-13T13:55:38.525Z,13020.00
2019-05-13T13:56:38.557Z,12692.00
2019-05-13T13:57:38.563Z,12800.00
2019-05-13T13:58:38.577Z,12704.00
2019-05-13T14:00:13.738Z,12448.00
2019-05-13T14:00:52.559Z,12412.00
2019-05-13T14:01:38.629Z,12404.00
2019-05-13T14:02:38.658Z,12160.00
2019-05-13T14:03:38.670Z,12376.00
2019-05-13T14:04:38.693Z,12368.00
2019-05-13T14:05:38.699Z,12248.00
2019-05-13T14:07:39.873Z,12024.00
2019-05-13T14:08:41.388Z,11692.00
2019-05-13T14:09:38.784Z,11752.00
2019-05-13T14:10:38.820Z,12292.00
2019-05-13T14:11:38.812Z,12364.00
2019-05-13T14:12:38.847Z,12028.00
2019-05-13T14:13:38.857Z,11980.00
2019-05-13T14:14:41.234Z,11920.00
2019-05-13T14:15:41.538Z,11796.00
2019-05-13T14:16:38.912Z,12272.00
2019-05-13T14:17:38.924Z,11600.00
2019-05-13T14:18:41.709Z,11640.00
2019-05-13T14:19:38.969Z,11760.00
2019-05-13T14:20:38.989Z,12364.00
2019-05-13T14:21:41.466Z,12292.00
2019-05-13T14:22:41.777Z,11540.00
2019-05-13T14:23:39.047Z,11160.00
2019-05-13T14:24:39.064Z,11344.00
2019-05-13T14:25:41.891Z,11684.00
2019-05-13T14:26:39.100Z,11368.00
2019-05-13T14:27:39.122Z,11344.00
2019-05-13T14:28:41.919Z,11100.00
2019-05-13T14:29:45.972Z,11300.00
2019-05-13T14:30:39.180Z,11128.00
2019-05-13T14:31:41.313Z,10936.00
2019-05-13T14:32:39.227Z,11248.00
2019-05-13T14:33:39.248Z,11520.00
2019-05-13T14:34:41.865Z,11344.00
2019-05-13T14:35:41.465Z,11068.00
2019-05-13T14:36:39.288Z,10612.00
2019-05-13T14:37:39.314Z,10440.00
2019-05-13T14:38:39.327Z,10884.00
2019-05-13T14:39:39.465Z,10420.00
2019-05-13T14:40:39.392Z,10064.00
2019-05-13T14:41:39.391Z,10088.00
2019-05-13T14:42:39.412Z,10100.00
2019-05-13T14:43:39.461Z,9892.00
2019-05-13T14:44:39.437Z,9776.00
2019-05-13T14:46:55.448Z,10224.00
2019-05-13T14:47:39.489Z,9532.00
2019-05-13T14:48:39.509Z,9440.00
2019-05-13T14:49:42.109Z,9544.00
2019-05-13T14:50:41.617Z,9416.00
2019-05-13T14:51:41.490Z,9408.00
2019-05-13T14:52:41.636Z,9196.00
2019-05-13T14:53:41.598Z,9360.00
2019-05-13T14:54:41.845Z,9172.00
2019-05-13T14:55:41.900Z,9032.00
2019-05-13T14:56:41.832Z,9112.00
2019-05-13T14:57:41.904Z,9160.00
2019-05-13T14:58:41.853Z,8936.00
2019-05-13T14:59:41.413Z,8944.00
2019-05-13T15:01:41.341Z,8608.00
2019-05-13T15:02:41.929Z,8640.00
2019-05-13T15:03:41.572Z,8632.00
2019-05-13T15:04:41.894Z,8412.00
2019-05-13T15:05:39.821Z,8752.00
2019-05-13T15:06:41.677Z,8588.00
2019-05-13T15:07:42.068Z,8500.00
2019-05-13T15:08:42.202Z,8284.00
2019-05-13T15:09:42.018Z,8188.00
2019-05-13T15:10:41.931Z,8180.00
2019-05-13T15:11:41.905Z,8124.00
2019-05-13T15:12:41.567Z,8108.00
2019-05-13T15:13:42.296Z,7924.00
2019-05-13T15:14:42.441Z,7960.00
2019-05-13T15:15:42.125Z,8016.00
2019-05-13T15:16:42.389Z,7976.00
2019-05-13T15:17:42.473Z,7732.00
2019-05-13T15:18:41.642Z,7624.00
2019-05-13T15:19:41.974Z,7420.00
2019-05-13T15:20:41.710Z,7460.00
2019-05-13T15:21:41.278Z,7484.00
2019-05-13T15:22:42.324Z,7488.00
2019-05-13T15:23:42.208Z,7404.00
2019-05-13T15:24:41.263Z,7532.00
2019-05-13T15:25:42.008Z,7412.00
2019-05-13T15:26:42.227Z,7280.00
2019-05-13T15:27:41.998Z,7424.00
2019-05-13T15:28:42.192Z,7088.00
2019-05-13T15:29:41.784Z,7088.00
2019-05-13T15:30:42.093Z,6904.00
2019-05-13T15:31:42.185Z,6728.00
2019-05-13T15:32:42.013Z,5924.00
2019-05-13T15:33:41.597Z,5704.00
2019-05-13T15:34:42.473Z,5728.00
2019-05-13T15:35:41.936Z,5544.00
2019-05-13T15:36:41.934Z,5536.00
2019-05-13T15:37:41.778Z,5480.00
2019-05-13T15:39:42.547Z,5392.00
2019-05-13T15:40:41.479Z,5408.00
2019-05-13T15:41:41.773Z,5532.00
2019-05-13T15:42:40.575Z,5440.00
2019-05-13T15:43:42.161Z,5312.00
2019-05-13T15:44:40.451Z,5300.00
2019-05-13T15:45:42.510Z,5344.00
2019-05-13T15:46:41.654Z,5204.00
2019-05-13T15:47:40.504Z,5428.00
2019-05-13T15:48:42.215Z,5336.00
2019-05-13T15:49:40.552Z,5156.00
2019-05-13T15:50:42.229Z,5132.00
2019-05-13T15:51:42.242Z,5192.00
2019-05-13T15:52:43.258Z,5516.00
2019-05-13T15:53:40.586Z,5152.00
2019-05-13T15:54:41.432Z,5168.00
2019-05-13T15:55:40.617Z,5352.00
2019-05-13T15:56:40.636Z,5208.00
2019-05-13T15:57:42.777Z,5164.00
2019-05-13T15:58:43.574Z,5260.00
2019-05-13T15:59:41.485Z,5144.00
2019-05-13T16:00:41.938Z,5180.00
2019-05-13T16:01:41.443Z,5184.00
2019-05-13T16:02:42.144Z,5116.00
2019-05-13T16:03:41.554Z,5048.00
2019-05-13T16:04:49.929Z,5208.00
2019-05-13T16:05:42.357Z,5072.00
2019-05-13T16:06:41.785Z,5108.00
2019-05-13T16:07:41.736Z,4932.00
2019-05-13T16:08:43.311Z,5040.00
2019-05-13T16:09:42.056Z,5104.00
2019-05-13T16:10:41.907Z,5120.00
2019-05-13T16:11:41.549Z,4964.00
2019-05-13T16:12:40.824Z,5076.00
2019-05-13T16:13:40.842Z,5052.00
2019-05-13T16:14:41.458Z,5016.00
2019-05-13T16:15:41.647Z,5028.00
2019-05-13T16:16:41.666Z,5044.00
2019-05-13T16:17:44.467Z,5020.00
2019-05-13T16:18:41.973Z,5112.00
2019-05-13T16:19:41.982Z,4968.00
2019-05-13T16:20:44.478Z,5124.00
2019-05-13T16:21:41.614Z,5164.00
2019-05-13T16:22:42.001Z,5092.00
2019-05-13T16:23:42.926Z,5080.00
2019-05-13T16:24:41.631Z,5128.00
2019-05-13T16:25:41.628Z,5040.00
2019-05-13T16:26:42.630Z,5156.00
2019-05-13T16:27:41.660Z,5212.00
2019-05-13T16:28:41.854Z,5072.00
2019-05-13T16:29:42.248Z,5144.00
2019-05-13T16:30:42.035Z,5164.00
2019-05-13T16:31:41.710Z,5288.00
2019-05-13T16:32:42.434Z,5184.00
2019-05-13T16:33:41.762Z,5136.00
2019-05-13T16:34:42.285Z,5040.00
2019-05-13T16:35:42.507Z,5304.00
2019-05-13T16:36:42.812Z,5276.00
2019-05-13T16:37:41.892Z,5024.00
2019-05-13T16:38:41.911Z,5044.00
2019-05-13T16:39:41.597Z,5060.00
2019-05-13T16:40:42.373Z,5032.00
2019-05-13T16:41:42.594Z,5052.00
2019-05-13T16:42:42.195Z,5048.00
2019-05-13T16:43:42.623Z,5212.00
2019-05-13T16:44:43.003Z,5088.00
2019-05-13T16:45:42.342Z,5028.00
2019-05-13T16:46:42.452Z,5280.00
2019-05-13T16:47:56.231Z,5064.00
2019-05-13T16:48:41.725Z,5084.00
2019-05-13T16:49:41.249Z,5208.00
2019-05-13T16:50:41.824Z,5012.00
2019-05-13T16:51:42.727Z,4940.00
2019-05-13T16:52:41.849Z,4976.00
2019-05-13T16:53:42.231Z,5028.00
2019-05-13T16:54:42.433Z,4920.00
2019-05-13T16:55:41.642Z,4792.00
2019-05-13T16:56:41.994Z,4896.00
2019-05-13T16:57:42.355Z,4896.00
2019-05-13T16:58:41.822Z,4916.00
2019-05-13T16:59:41.357Z,4936.00
2019-05-13T17:00:42.470Z,4804.00
2019-05-13T17:01:41.973Z,4748.00
2019-05-13T17:02:42.220Z,4776.00
2019-05-13T17:03:41.693Z,4764.00
2019-05-13T17:04:41.571Z,4752.00
2019-05-13T17:05:42.004Z,4768.00
2019-05-13T17:06:41.728Z,4708.00
2019-05-13T17:07:42.153Z,4632.00
2019-05-13T17:08:42.483Z,4620.00
2019-05-13T17:09:41.675Z,4568.00
2019-05-13T17:10:41.984Z,4612.00
2019-05-13T17:11:41.692Z,4532.00
2019-05-13T17:12:43.027Z,4580.00
2019-05-13T17:14:41.693Z,4496.00
2019-05-13T17:15:41.757Z,4496.00
2019-05-13T17:16:42.230Z,4452.00
2019-05-13T17:17:41.562Z,4528.00
2019-05-13T17:18:41.901Z,4452.00
2019-05-13T17:19:42.209Z,4408.00
2019-05-13T17:20:41.588Z,4388.00
2019-05-13T17:21:41.610Z,4380.00
2019-05-13T17:22:42.379Z,4368.00
2019-05-13T17:23:41.917Z,4340.00
2019-05-13T17:24:42.658Z,4500.00
2019-05-13T17:25:42.326Z,4308.00
2019-05-13T17:26:41.950Z,4300.00
2019-05-13T17:27:41.660Z,4284.00
2019-05-13T17:28:41.887Z,4260.00
2019-05-13T17:29:41.686Z,4232.00
2019-05-13T17:30:41.697Z,4204.00
2019-05-13T17:31:41.915Z,4368.00
2019-05-13T17:32:41.708Z,4184.00
2019-05-13T17:33:41.730Z,4184.00
2019-05-13T17:34:45.490Z,4152.00
2019-05-13T17:35:41.927Z,4124.00
2019-05-13T17:36:42.084Z,4104.00
2019-05-13T17:37:42.287Z,4100.00
2019-05-13T17:38:41.775Z,4072.00
2019-05-13T17:39:41.779Z,4040.00
2019-05-13T17:40:42.139Z,4040.00
2019-05-13T17:41:41.802Z,3992.00
2019-05-13T17:42:41.810Z,3992.00
2019-05-13T17:43:41.829Z,3996.00
2019-05-13T17:44:45.914Z,3948.00
2019-05-13T17:45:41.873Z,3912.00
2019-05-13T17:46:42.108Z,3924.00
2019-05-13T17:47:42.046Z,3856.00
2019-05-13T17:48:41.880Z,3812.00
2019-05-13T17:49:41.984Z,3748.00
2019-05-13T17:50:41.907Z,3780.00
2019-05-13T17:51:42.529Z,3700.00
2019-05-13T17:52:41.913Z,3644.00
2019-05-13T17:53:41.925Z,3584.00
2019-05-13T17:54:42.768Z,3552.00
2019-05-13T17:55:41.948Z,3500.00
2019-05-13T17:56:41.962Z,3428.00
2019-05-13T17:57:41.978Z,3356.00
2019-05-13T17:58:42.143Z,3300.00
2019-05-13T17:59:42.007Z,3252.00
2019-05-13T18:00:41.996Z,3196.00
2019-05-13T18:01:42.012Z,3132.00
2019-05-13T18:02:42.172Z,3092.00
2019-05-13T18:03:42.032Z,3040.00
2019-05-13T18:04:42.062Z,2980.00
2019-05-13T18:05:42.204Z,2936.00
2019-05-13T18:06:42.068Z,2884.00
2019-05-13T18:07:42.186Z,2800.00
2019-05-13T18:08:42.072Z,2740.00
2019-05-13T18:09:42.466Z,2688.00
2019-05-13T18:10:42.103Z,2724.00
2019-05-13T18:11:42.108Z,2568.00
2019-05-13T18:12:42.139Z,2916.00
2019-05-13T18:13:43.756Z,2460.00
2019-05-13T18:14:42.138Z,2412.00
2019-05-13T18:15:42.150Z,2340.00
2019-05-13T18:16:42.235Z,2308.00
2019-05-13T18:17:42.174Z,2224.00
2019-05-13T18:18:47.082Z,2184.00
2019-05-13T18:19:42.339Z,2108.00
2019-05-13T18:20:42.196Z,2060.00
2019-05-13T18:21:42.587Z,2008.00
2019-05-13T18:22:42.247Z,1948.00
2019-05-13T18:23:42.227Z,1896.00
2019-05-13T18:24:42.237Z,1844.00